Time;durP1;ratioP1;P1;durP2;ratioP2;P2;SDS_P1;SDS_P2;PMS_P1;PMS_P2;Temp;Humidity;BMP_temperature;BMP_pressure;BME280_temperature;BME280_humidity;BME280_pressure;Samples;Min_cycle;Max_cycle;Signal;HPM_P1;HPM_P2
2023/04/19 00:01:10;;;;;;;;;;;20.00;42.80;;;;;;5054823;28;20359;-63
2023/04/19 00:03:36;;;;;;;;;;;20.00;42.80;;;;;;5082121;28;19924;-63
2023/04/19 00:06:03;;;;;;;;;;;20.00;42.80;;;;;;5079128;28;20265;-63
2023/04/19 00:08:30;;;;;;;;;;;19.90;42.70;;;;;;5063139;28;19921;-62
2023/04/19 00:10:56;;;;;;;;;;;20.00;42.90;;;;;;5073202;28;20309;-62
2023/04/19 00:13:23;;;;;;;;;;;19.90;42.70;;;;;;5066283;28;19920;-63
2023/04/19 00:15:51;;;;;;;;;;;19.90;42.80;;;;;;5097017;28;19920;-63
2023/04/19 00:18:18;;;;;;;;;;;19.90;42.80;;;;;;5112245;28;20011;-63
2023/04/19 00:20:45;;;;;;;;;;;19.90;42.80;;;;;;5096504;28;20269;-63
2023/04/19 00:23:12;;;;;;;;;;;20.00;42.80;;;;;;5108502;28;20330;-62
2023/04/19 00:25:38;;;;;;;;;;;20.00;42.80;;;;;;5089262;28;19920;-62
2023/04/19 00:28:05;;;;;;;;;;;20.00;42.90;;;;;;5076285;28;19958;-63
2023/04/19 00:30:32;;;;;;;;;;;20.00;42.90;;;;;;5057837;28;19942;-63
2023/04/19 00:33:01;;;;;;;;;;;19.90;42.80;;;;;;5075720;28;19921;-62
2023/04/19 00:35:27;;;;;;;;;;;20.00;42.90;;;;;;5056737;28;19924;-62
2023/04/19 00:37:54;;;;;;;;;;;19.90;42.80;;;;;;5080901;28;19927;-62
2023/04/19 00:40:21;;;;;;;;;;;19.90;42.80;;;;;;5083404;28;19920;-62
2023/04/19 00:42:47;;;;;;;;;;;20.00;42.90;;;;;;5061707;28;20423;-62
2023/04/19 00:45:14;;;;;;;;;;;19.90;42.80;;;;;;5072468;28;19920;-61
2023/04/19 00:47:41;;;;;;;;;;;19.90;42.80;;;;;;5092220;28;19920;-62
2023/04/19 00:50:10;;;;;;;;;;;20.00;42.90;;;;;;5087350;28;20266;-62
2023/04/19 00:52:37;;;;;;;;;;;19.90;42.80;;;;;;5073140;28;19932;-62
2023/04/19 00:55:04;;;;;;;;;;;19.90;42.80;;;;;;5074231;28;19981;-62
2023/04/19 00:57:31;;;;;;;;;;;19.90;43.40;;;;;;5078208;28;19973;-62
2023/04/19 00:59:58;;;;;;;;;;;19.90;42.80;;;;;;5063216;28;19920;-62
2023/04/19 01:02:27;;;;;;;;;;;20.00;42.90;;;;;;5054879;28;20420;-62
2023/04/19 01:04:54;;;;;;;;;;;19.90;42.80;;;;;;5074577;28;20140;-62
2023/04/19 01:07:22;;;;;;;;;;;20.00;42.90;;;;;;5072137;28;19924;-62
2023/04/19 01:09:48;;;;;;;;;;;19.90;42.80;;;;;;5059232;28;19924;-62
2023/04/19 01:12:15;;;;;;;;;;;19.90;42.80;;;;;;5072116;28;19927;-62
2023/04/19 01:14:42;;;;;;;;;;;20.00;42.90;;;;;;5057658;28;19920;-62
2023/04/19 01:17:09;;;;;;;;;;;19.90;42.80;;;;;;5091973;28;19927;-62
2023/04/19 01:19:37;;;;;;;;;;;19.90;42.80;;;;;;5068607;28;19932;-62
2023/04/19 01:22:05;;;;;;;;;;;19.90;42.80;;;;;;5088961;28;19925;-62
2023/04/19 01:24:33;;;;;;;;;;;20.00;42.90;;;;;;5066639;28;19967;-62
2023/04/19 01:27:01;;;;;;;;;;;19.90;42.80;;;;;;5074139;28;19920;-62
2023/04/19 01:29:27;;;;;;;;;;;19.90;42.80;;;;;;5058888;28;19924;-62
2023/04/19 01:31:54;;;;;;;;;;;19.90;42.80;;;;;;5103201;28;19981;-62
2023/04/19 01:34:21;;;;;;;;;;;19.90;42.80;;;;;;5081864;28;19943;-63
2023/04/19 01:36:48;;;;;;;;;;;19.90;42.90;;;;;;5078821;28;19920;-63
2023/04/19 01:39:15;;;;;;;;;;;19.90;42.80;;;;;;5056866;28;19935;-62
2023/04/19 01:41:43;;;;;;;;;;;19.90;42.80;;;;;;5062354;28;19924;-63
2023/04/19 01:44:10;;;;;;;;;;;19.90;42.80;;;;;;5067106;28;19920;-63
2023/04/19 01:46:37;;;;;;;;;;;19.90;42.80;;;;;;5100859;28;20362;-63
2023/04/19 01:49:04;;;;;;;;;;;19.90;42.80;;;;;;5099259;28;19920;-63
2023/04/19 01:51:31;;;;;;;;;;;19.90;42.90;;;;;;5093822;28;19927;-63
2023/04/19 01:53:58;;;;;;;;;;;19.90;42.90;;;;;;5056016;28;19924;-63
2023/04/19 01:56:25;;;;;;;;;;;19.90;42.80;;;;;;5081389;28;19928;-63
2023/04/19 01:58:53;;;;;;;;;;;19.90;42.80;;;;;;5055320;28;19920;-63
2023/04/19 02:01:19;;;;;;;;;;;19.90;42.80;;;;;;5086213;28;19920;-61
2023/04/19 02:03:46;;;;;;;;;;;19.90;42.90;;;;;;5060516;28;19928;-62
2023/04/19 02:06:13;;;;;;;;;;;19.90;42.90;;;;;;5083835;28;19920;-62
2023/04/19 02:08:40;;;;;;;;;;;19.90;42.80;;;;;;5056590;28;19921;-62
2023/04/19 02:11:07;;;;;;;;;;;19.90;42.80;;;;;;5054562;28;19954;-62
2023/04/19 02:13:34;;;;;;;;;;;19.90;42.90;;;;;;5081935;28;20027;-62
2023/04/19 02:16:02;;;;;;;;;;;19.90;42.90;;;;;;5087559;28;19973;-62
2023/04/19 02:18:29;;;;;;;;;;;19.90;42.80;;;;;;5102815;28;19985;-62
2023/04/19 02:20:56;;;;;;;;;;;19.90;42.90;;;;;;5068135;28;20015;-62
2023/04/19 02:23:23;;;;;;;;;;;19.90;42.80;;;;;;5087032;28;19935;-62
2023/04/19 02:25:49;;;;;;;;;;;19.90;42.90;;;;;;5075116;28;19920;-62
2023/04/19 02:28:16;;;;;;;;;;;19.90;42.80;;;;;;5102528;28;19926;-61
2023/04/19 02:30:43;;;;;;;;;;;19.90;42.90;;;;;;5073279;28;19920;-62
2023/04/19 02:33:11;;;;;;;;;;;19.90;42.90;;;;;;5094421;28;19924;-62
2023/04/19 02:35:38;;;;;;;;;;;19.90;42.90;;;;;;5093917;28;20002;-62
2023/04/19 02:38:04;;;;;;;;;;;19.90;42.90;;;;;;5076681;28;19929;-62
2023/04/19 02:40:31;;;;;;;;;;;19.90;42.90;;;;;;5075839;28;20282;-62
2023/04/19 02:42:58;;;;;;;;;;;19.90;42.90;;;;;;5093991;28;19941;-62
2023/04/19 02:45:25;;;;;;;;;;;19.90;42.90;;;;;;5073672;28;19973;-62
2023/04/19 02:47:52;;;;;;;;;;;19.90;42.90;;;;;;5071235;28;20388;-62
2023/04/19 02:50:21;;;;;;;;;;;19.90;42.90;;;;;;5073446;28;20000;-62
2023/04/19 02:52:48;;;;;;;;;;;19.90;42.90;;;;;;5095399;28;19927;-63
2023/04/19 02:55:14;;;;;;;;;;;19.90;42.90;;;;;;5076530;28;19920;-62
2023/04/19 02:57:41;;;;;;;;;;;19.90;42.90;;;;;;5094000;28;19920;-62
2023/04/19 03:00:09;;;;;;;;;;;19.90;42.90;;;;;;5075969;28;19982;-63
2023/04/19 03:02:35;;;;;;;;;;;19.90;42.90;;;;;;5075833;28;19920;-62
2023/04/19 03:05:03;;;;;;;;;;;19.90;42.90;;;;;;5076482;28;19981;-62
2023/04/19 03:07:31;;;;;;;;;;;19.90;42.90;;;;;;5075829;28;20386;-63
2023/04/19 03:09:58;;;;;;;;;;;19.90;42.90;;;;;;5093725;28;19974;-62
2023/04/19 03:12:24;;;;;;;;;;;19.90;42.90;;;;;;5093706;28;19919;-63
2023/04/19 03:14:51;;;;;;;;;;;19.90;42.90;;;;;;5092728;28;19920;-63
2023/04/19 03:17:18;;;;;;;;;;;19.90;42.90;;;;;;5075887;28;19924;-62
2023/04/19 03:19:45;;;;;;;;;;;19.90;42.90;;;;;;5076127;28;20233;-63
2023/04/19 03:22:11;;;;;;;;;;;19.90;42.90;;;;;;5075923;28;19920;-63
2023/04/19 03:24:39;;;;;;;;;;;19.90;42.90;;;;;;5076553;28;19961;-62
2023/04/19 03:27:06;;;;;;;;;;;19.90;42.90;;;;;;5092173;28;19927;-62
2023/04/19 03:29:33;;;;;;;;;;;19.90;42.90;;;;;;5093813;28;19944;-63
2023/04/19 03:32:00;;;;;;;;;;;19.90;42.90;;;;;;5094077;28;19962;-62
2023/04/19 03:34:26;;;;;;;;;;;19.90;42.90;;;;;;5076245;28;19920;-62
2023/04/19 03:36:53;;;;;;;;;;;19.90;42.90;;;;;;5075496;28;19920;-62
2023/04/19 03:39:20;;;;;;;;;;;19.90;42.90;;;;;;5076524;28;19920;-62
2023/04/19 03:41:48;;;;;;;;;;;19.90;42.90;;;;;;5075976;28;20033;-62
2023/04/19 03:44:15;;;;;;;;;;;19.90;42.90;;;;;;5093853;28;19981;-62
2023/04/19 03:46:42;;;;;;;;;;;19.90;42.90;;;;;;5076259;28;19920;-62
2023/04/19 03:49:09;;;;;;;;;;;19.90;42.90;;;;;;5093557;28;19931;-63
2023/04/19 03:51:38;;;;;;;;;;;19.90;42.90;;;;;;5093850;28;19920;-62
2023/04/19 03:54:05;;;;;;;;;;;19.90;42.90;;;;;;5073767;28;19924;-62
2023/04/19 03:56:31;;;;;;;;;;;19.90;42.90;;;;;;5091666;28;19965;-62
2023/04/19 03:59:00;;;;;;;;;;;19.90;42.90;;;;;;5095377;28;19981;-62
2023/04/19 04:01:26;;;;;;;;;;;19.90;42.90;;;;;;5095563;28;19919;-62
2023/04/19 04:03:53;;;;;;;;;;;19.90;42.90;;;;;;5066758;28;19928;-62
2023/04/19 04:06:20;;;;;;;;;;;19.90;42.90;;;;;;5056612;28;19990;-61
2023/04/19 04:08:46;;;;;;;;;;;19.90;42.90;;;;;;5058852;28;20011;-62
2023/04/19 04:11:13;;;;;;;;;;;19.90;42.90;;;;;;5069639;28;19920;-62
2023/04/19 04:13:40;;;;;;;;;;;19.90;42.90;;;;;;5078627;28;19920;-62
2023/04/19 04:16:08;;;;;;;;;;;19.90;42.90;;;;;;5072177;28;19928;-62
2023/04/19 04:18:35;;;;;;;;;;;19.90;42.90;;;;;;5109058;28;19920;-63
2023/04/19 04:21:01;;;;;;;;;;;19.90;42.90;;;;;;5070172;28;19969;-62
2023/04/19 04:23:28;;;;;;;;;;;19.90;42.90;;;;;;5072805;28;19924;-62
2023/04/19 04:25:59;;;;;;;;;;;19.90;42.90;;;;;;5085261;28;19920;-62
2023/04/19 04:28:26;;;;;;;;;;;19.90;42.90;;;;;;5095400;28;19926;-62
2023/04/19 04:30:56;;;;;;;;;;;19.90;42.90;;;;;;5096861;28;19920;-62
2023/04/19 04:33:25;;;;;;;;;;;19.90;42.90;;;;;;5112040;28;19924;-62
2023/04/19 04:35:52;;;;;;;;;;;20.00;43.00;;;;;;5085815;28;19927;-62
2023/04/19 04:38:19;;;;;;;;;;;19.90;42.90;;;;;;5055476;28;19924;-62
2023/04/19 04:40:49;;;;;;;;;;;19.90;42.90;;;;;;5074675;28;19927;-62
2023/04/19 04:43:16;;;;;;;;;;;19.90;42.90;;;;;;5070288;28;19926;-62
2023/04/19 04:45:43;;;;;;;;;;;19.90;42.90;;;;;;5094306;28;20385;-62
2023/04/19 04:48:10;;;;;;;;;;;19.90;42.90;;;;;;5089431;28;19920;-62
2023/04/19 04:50:38;;;;;;;;;;;19.90;42.90;;;;;;5056284;28;19921;-62
2023/04/19 04:53:05;;;;;;;;;;;19.90;42.90;;;;;;5059894;28;19928;-62
2023/04/19 04:55:32;;;;;;;;;;;19.90;42.90;;;;;;5075909;28;19966;-62
2023/04/19 04:57:59;;;;;;;;;;;19.90;42.90;;;;;;5057582;28;20023;-62
2023/04/19 05:00:26;;;;;;;;;;;19.90;42.90;;;;;;5075787;28;19943;-62
2023/04/19 05:02:53;;;;;;;;;;;19.90;42.90;;;;;;5062210;28;20316;-62
2023/04/19 05:05:19;;;;;;;;;;;19.90;42.90;;;;;;5094760;28;19932;-63
2023/04/19 05:07:47;;;;;;;;;;;19.90;42.90;;;;;;5093573;28;19923;-62
2023/04/19 05:10:14;;;;;;;;;;;19.90;42.90;;;;;;5095758;28;19920;-62
2023/04/19 05:12:41;;;;;;;;;;;19.90;42.90;;;;;;5094577;28;19924;-62
2023/04/19 05:15:08;;;;;;;;;;;19.90;42.90;;;;;;5075959;28;19920;-62
2023/04/19 05:17:35;;;;;;;;;;;19.90;42.90;;;;;;5093793;28;20296;-62
2023/04/19 05:20:03;;;;;;;;;;;19.90;42.90;;;;;;5095310;28;19927;-62
2023/04/19 05:22:29;;;;;;;;;;;19.90;42.90;;;;;;5075942;28;19971;-62
2023/04/19 05:24:57;;;;;;;;;;;19.90;42.90;;;;;;5094102;28;19920;-62
2023/04/19 05:27:24;;;;;;;;;;;19.90;42.90;;;;;;5095249;28;19920;-62
2023/04/19 05:29:51;;;;;;;;;;;19.90;42.90;;;;;;5095136;28;19969;-62
2023/04/19 05:32:18;;;;;;;;;;;19.90;42.90;;;;;;5077170;28;19920;-62
2023/04/19 05:34:45;;;;;;;;;;;19.90;42.90;;;;;;5092205;28;19973;-62
2023/04/19 05:37:11;;;;;;;;;;;19.90;43.00;;;;;;5095086;28;20033;-62
2023/04/19 05:39:38;;;;;;;;;;;19.90;42.90;;;;;;5075508;28;19920;-61
2023/04/19 05:42:06;;;;;;;;;;;19.90;42.90;;;;;;5076602;28;19927;-62
2023/04/19 05:44:33;;;;;;;;;;;19.90;43.00;;;;;;5094234;28;19928;-62
2023/04/19 05:47:00;;;;;;;;;;;19.90;42.90;;;;;;5076920;28;19924;-63
2023/04/19 05:49:27;;;;;;;;;;;19.90;42.90;;;;;;5076934;28;20022;-62
2023/04/19 05:51:54;;;;;;;;;;;19.90;43.00;;;;;;5091765;28;19946;-61
2023/04/19 05:54:21;;;;;;;;;;;19.90;42.90;;;;;;5056450;28;19920;-62
2023/04/19 05:56:50;;;;;;;;;;;19.90;42.90;;;;;;5057247;28;19964;-62
2023/04/19 05:59:19;;;;;;;;;;;19.90;42.90;;;;;;5056662;28;19974;-62
2023/04/19 06:01:45;;;;;;;;;;;19.90;42.90;;;;;;5073176;28;19942;-62
2023/04/19 06:04:12;;;;;;;;;;;19.90;42.90;;;;;;5095024;28;19942;-63
2023/04/19 06:06:39;;;;;;;;;;;19.90;42.90;;;;;;5093111;28;19927;-62
2023/04/19 06:09:06;;;;;;;;;;;19.90;42.90;;;;;;5076375;28;19927;-62
2023/04/19 06:11:33;;;;;;;;;;;19.90;43.50;;;;;;5076570;28;19973;-62
2023/04/19 06:14:00;;;;;;;;;;;19.90;42.90;;;;;;5076363;28;19943;-62
2023/04/19 06:16:28;;;;;;;;;;;19.90;42.90;;;;;;5074867;28;19977;-61
2023/04/19 06:18:55;;;;;;;;;;;19.90;42.90;;;;;;5093026;28;20288;-62
2023/04/19 06:21:22;;;;;;;;;;;19.90;42.90;;;;;;5092583;28;20354;-61
2023/04/19 06:23:48;;;;;;;;;;;19.90;42.90;;;;;;5094401;28;19931;-62
2023/04/19 06:26:15;;;;;;;;;;;19.90;42.90;;;;;;5093076;28;19927;-62
2023/04/19 06:28:42;;;;;;;;;;;19.90;42.90;;;;;;5074631;28;19920;-62
2023/04/19 06:31:09;;;;;;;;;;;19.90;42.90;;;;;;5072442;28;20359;-62
2023/04/19 06:33:37;;;;;;;;;;;19.90;42.90;;;;;;5054910;28;19920;-62
2023/04/19 06:36:04;;;;;;;;;;;19.90;43.00;;;;;;5073944;28;19920;-62
2023/04/19 06:38:31;;;;;;;;;;;19.90;43.00;;;;;;5054384;28;19928;-62
2023/04/19 06:40:58;;;;;;;;;;;19.90;42.90;;;;;;5074068;28;20041;-62
2023/04/19 06:43:24;;;;;;;;;;;19.90;42.90;;;;;;5071642;28;20324;-62
2023/04/19 06:45:57;;;;;;;;;;;19.90;42.90;;;;;;5094113;28;19928;-62
2023/04/19 06:48:24;;;;;;;;;;;19.90;42.90;;;;;;5093492;28;19932;-62
2023/04/19 06:50:57;;;;;;;;;;;19.90;42.90;;;;;;5092707;28;19928;-62
2023/04/19 06:53:25;;;;;;;;;;;19.90;42.90;;;;;;5092854;28;20371;-63
2023/04/19 06:55:53;;;;;;;;;;;19.90;42.90;;;;;;5094122;28;20022;-62
2023/04/19 06:58:20;;;;;;;;;;;19.90;42.90;;;;;;5075625;28;19966;-62
2023/04/19 07:00:46;;;;;;;;;;;19.90;42.90;;;;;;5090591;28;19920;-62
2023/04/19 07:03:13;;;;;;;;;;;19.90;42.90;;;;;;5063322;28;20393;-62
2023/04/19 07:05:40;;;;;;;;;;;19.90;42.90;;;;;;5085051;28;19920;-62
2023/04/19 07:08:08;;;;;;;;;;;19.90;42.90;;;;;;5072832;28;19924;-62
2023/04/19 07:10:35;;;;;;;;;;;19.90;42.90;;;;;;5088357;28;19955;-62
2023/04/19 07:13:01;;;;;;;;;;;19.90;42.90;;;;;;5067514;28;20362;-62
2023/04/19 07:15:28;;;;;;;;;;;19.90;42.90;;;;;;5070142;28;19920;-62
2023/04/19 07:17:55;;;;;;;;;;;19.90;42.90;;;;;;5078225;28;19927;-62
2023/04/19 07:20:22;;;;;;;;;;;19.90;42.90;;;;;;5086492;28;19924;-62
2023/04/19 07:22:49;;;;;;;;;;;19.90;42.90;;;;;;5070655;28;19969;-61
2023/04/19 07:25:17;;;;;;;;;;;20.00;43.00;;;;;;5067359;28;19943;-62
2023/04/19 07:27:44;;;;;;;;;;;19.90;42.80;;;;;;5055526;28;19920;-61
2023/04/19 07:30:11;;;;;;;;;;;20.00;43.00;;;;;;5060221;28;19960;-61
2023/04/19 07:32:37;;;;;;;;;;;20.00;43.00;;;;;;5075873;28;19946;-62
2023/04/19 07:35:05;;;;;;;;;;;20.00;43.00;;;;;;5076712;28;19924;-62
2023/04/19 07:37:32;;;;;;;;;;;20.00;43.00;;;;;;5084661;28;19924;-62
2023/04/19 07:39:59;;;;;;;;;;;20.00;43.00;;;;;;5074897;28;19926;-61
2023/04/19 07:42:29;;;;;;;;;;;20.00;43.00;;;;;;5076080;28;19927;-60
2023/04/19 07:44:56;;;;;;;;;;;20.00;43.00;;;;;;5058223;28;19925;-61
2023/04/19 07:47:23;;;;;;;;;;;20.00;43.00;;;;;;5074489;28;19928;-60
2023/04/19 07:49:51;;;;;;;;;;;20.00;43.00;;;;;;5096332;28;19935;-61
2023/04/19 07:52:18;;;;;;;;;;;20.00;43.00;;;;;;5097200;28;20278;-62
2023/04/19 07:54:45;;;;;;;;;;;20.00;43.00;;;;;;5096292;28;20262;-62
2023/04/19 07:57:12;;;;;;;;;;;20.00;43.00;;;;;;5079851;28;19924;-61
2023/04/19 07:59:40;;;;;;;;;;;20.00;43.00;;;;;;5079842;28;20350;-61
2023/04/19 08:02:07;;;;;;;;;;;20.00;42.90;;;;;;5097281;28;19957;-62
2023/04/19 08:04:34;;;;;;;;;;;20.00;42.90;;;;;;5077306;28;19981;-61
2023/04/19 08:07:02;;;;;;;;;;;20.00;43.00;;;;;;5110664;28;19920;-62
2023/04/19 08:09:29;;;;;;;;;;;20.00;43.00;;;;;;5096834;28;19938;-62
2023/04/19 08:11:56;;;;;;;;;;;20.00;42.90;;;;;;5095756;28;19920;-62
2023/04/19 08:14:23;;;;;;;;;;;20.00;42.90;;;;;;5094939;28;20020;-62
2023/04/19 08:16:51;;;;;;;;;;;20.00;42.90;;;;;;5095748;28;19973;-61
2023/04/19 08:19:18;;;;;;;;;;;20.00;42.90;;;;;;5095283;28;19920;-62
2023/04/19 08:21:45;;;;;;;;;;;20.00;42.90;;;;;;5095357;28;19973;-62
2023/04/19 08:24:11;;;;;;;;;;;20.00;43.00;;;;;;5079055;28;19920;-62
2023/04/19 08:26:39;;;;;;;;;;;20.00;42.90;;;;;;5079135;28;19927;-62
2023/04/19 08:29:06;;;;;;;;;;;20.00;42.90;;;;;;5096245;28;19920;-62
2023/04/19 08:31:33;;;;;;;;;;;20.00;42.90;;;;;;5096478;28;19977;-62
2023/04/19 08:34:01;;;;;;;;;;;20.00;42.90;;;;;;5078969;28;19920;-63
2023/04/19 08:36:29;;;;;;;;;;;20.00;42.90;;;;;;5076562;28;20009;-62
2023/04/19 08:38:55;;;;;;;;;;;20.00;43.00;;;;;;5076679;28;20003;-62
2023/04/19 08:41:22;;;;;;;;;;;20.00;43.00;;;;;;5094214;28;19928;-63
2023/04/19 08:43:49;;;;;;;;;;;20.00;42.90;;;;;;5095631;28;19920;-62
2023/04/19 08:46:16;;;;;;;;;;;20.00;43.00;;;;;;5077757;28;19924;-63
2023/04/19 08:48:42;;;;;;;;;;;20.00;42.90;;;;;;5076128;28;19924;-63
2023/04/19 08:51:12;;;;;;;;;;;20.00;42.90;;;;;;5078049;28;19973;-62
2023/04/19 08:53:39;;;;;;;;;;;20.00;42.90;;;;;;5077991;28;20054;-62
2023/04/19 08:56:07;;;;;;;;;;;20.00;42.90;;;;;;5076661;28;19921;-62
2023/04/19 08:58:33;;;;;;;;;;;20.00;42.90;;;;;;5077857;28;19967;-62
2023/04/19 09:01:01;;;;;;;;;;;20.00;42.90;;;;;;5095954;28;19920;-62
2023/04/19 09:03:28;;;;;;;;;;;20.00;42.90;;;;;;5094631;28;20018;-62
2023/04/19 09:05:57;;;;;;;;;;;20.00;43.00;;;;;;5077984;28;19926;-63
2023/04/19 09:08:33;;;;;;;;;;;20.00;42.90;;;;;;5075691;28;20427;-62
2023/04/19 09:11:00;;;;;;;;;;;20.00;42.90;;;;;;5077920;28;19920;-63
2023/04/19 09:13:26;;;;;;;;;;;20.00;42.90;;;;;;5078389;28;19920;-63
2023/04/19 09:15:55;;;;;;;;;;;20.00;42.90;;;;;;5077655;28;19973;-62
2023/04/19 09:18:23;;;;;;;;;;;20.00;43.00;;;;;;5093984;28;19952;-62
2023/04/19 09:20:55;;;;;;;;;;;20.00;42.90;;;;;;5077460;28;19920;-62
2023/04/19 09:23:24;;;;;;;;;;;20.00;42.90;;;;;;5068889;28;19926;-63
2023/04/19 09:25:53;;;;;;;;;;;20.00;42.90;;;;;;5058248;28;20018;-63
2023/04/19 09:28:20;;;;;;;;;;;20.00;42.90;;;;;;5090094;28;19939;-63
2023/04/19 09:30:47;;;;;;;;;;;20.00;42.90;;;;;;5094847;28;19920;-63
2023/04/19 09:33:14;;;;;;;;;;;20.00;43.50;;;;;;5077033;28;19924;-63
2023/04/19 09:35:41;;;;;;;;;;;20.00;42.90;;;;;;5073087;28;19920;-63
2023/04/19 09:38:08;;;;;;;;;;;20.00;42.90;;;;;;5075264;28;19920;-63
2023/04/19 09:40:35;;;;;;;;;;;20.00;42.90;;;;;;5073889;28;19962;-63
2023/04/19 09:43:03;;;;;;;;;;;20.00;42.90;;;;;;5088381;28;19924;-62
2023/04/19 09:45:39;;;;;;;;;;;20.00;43.00;;;;;;5084967;28;19920;-62
2023/04/19 09:48:07;;;;;;;;;;;20.00;42.90;;;;;;5056620;28;19966;-62
2023/04/19 09:50:33;;;;;;;;;;;20.00;42.90;;;;;;5055073;28;20019;-62
2023/04/19 09:53:00;;;;;;;;;;;20.00;42.90;;;;;;5074299;28;19920;-62
2023/04/19 09:55:27;;;;;;;;;;;20.00;42.90;;;;;;5056329;28;19920;-62
2023/04/19 09:57:54;;;;;;;;;;;20.00;42.90;;;;;;5057388;28;20019;-62
2023/04/19 10:00:23;;;;;;;;;;;20.00;42.90;;;;;;5070709;28;19928;-61
2023/04/19 10:02:54;;;;;;;;;;;20.00;42.90;;;;;;5058203;28;19921;-62
2023/04/19 10:05:21;;;;;;;;;;;20.00;42.90;;;;;;5075753;28;19920;-62
2023/04/19 10:07:48;;;;;;;;;;;20.00;42.90;;;;;;5072834;28;19920;-62
2023/04/19 10:10:15;;;;;;;;;;;20.00;42.90;;;;;;5093679;28;19920;-63
2023/04/19 10:12:42;;;;;;;;;;;20.00;43.00;;;;;;5077302;28;19966;-63
2023/04/19 10:15:09;;;;;;;;;;;20.00;43.00;;;;;;5090222;28;19981;-63
2023/04/19 10:17:37;;;;;;;;;;;20.00;43.00;;;;;;5066821;28;19920;-62
2023/04/19 10:20:06;;;;;;;;;;;20.00;42.90;;;;;;5091665;28;19924;-63
2023/04/19 10:22:33;;;;;;;;;;;20.00;42.90;;;;;;5066023;28;19920;-63
2023/04/19 10:25:12;;;;;;;;;;;20.00;42.70;;;;;;5088880;28;19920;-62
2023/04/19 10:27:40;;;;;;;;;;;20.00;42.50;;;;;;5085234;28;19928;-62
2023/04/19 10:30:11;;;;;;;;;;;20.00;42.30;;;;;;5074990;28;19920;-62
2023/04/19 10:32:39;;;;;;;;;;;20.00;42.20;;;;;;5072447;28;19965;-62
2023/04/19 10:35:09;;;;;;;;;;;20.00;42.00;;;;;;5072951;28;19985;-62
2023/04/19 10:37:39;;;;;;;;;;;20.00;41.90;;;;;;5090640;28;19934;-62
2023/04/19 10:40:07;;;;;;;;;;;20.00;41.70;;;;;;5102772;28;19920;-62
2023/04/19 10:42:53;;;;;;;;;;;20.00;41.50;;;;;;5086136;28;19969;-62
2023/04/19 10:45:32;;;;;;;;;;;20.00;41.30;;;;;;5063006;28;19920;-62
2023/04/19 10:48:00;;;;;;;;;;;20.00;41.00;;;;;;5071683;28;19942;-61
2023/04/19 10:50:27;;;;;;;;;;;19.90;40.50;;;;;;5066130;28;19932;-62
2023/04/19 10:52:54;;;;;;;;;;;19.90;40.10;;;;;;5083886;28;19926;-61
2023/04/19 10:55:21;;;;;;;;;;;19.90;40.50;;;;;;5088912;28;19920;-62
2023/04/19 10:58:04;;;;;;;;;;;19.90;39.70;;;;;;5073299;28;19920;-61
2023/04/19 11:00:32;;;;;;;;;;;19.90;39.40;;;;;;5053742;28;19927;-62
2023/04/19 11:03:00;;;;;;;;;;;19.90;39.40;;;;;;5072184;28;19920;-61
2023/04/19 11:05:27;;;;;;;;;;;19.90;39.30;;;;;;5076864;28;19955;-62
2023/04/19 11:07:56;;;;;;;;;;;19.80;39.20;;;;;;5080536;28;19924;-62
2023/04/19 11:10:30;;;;;;;;;;;19.80;39.30;;;;;;5097524;28;19990;-63
2023/04/19 11:12:56;;;;;;;;;;;19.80;39.30;;;;;;5078047;28;19927;-62
2023/04/19 11:15:25;;;;;;;;;;;19.80;39.40;;;;;;5097861;28;19920;-63
2023/04/19 11:17:52;;;;;;;;;;;19.80;39.60;;;;;;5079718;28;19928;-63
2023/04/19 11:20:22;;;;;;;;;;;19.80;39.60;;;;;;5078136;28;19923;-62
2023/04/19 11:22:49;;;;;;;;;;;19.80;39.70;;;;;;5074182;28;19920;-62
2023/04/19 11:25:17;;;;;;;;;;;19.80;39.80;;;;;;5059294;28;19920;-62
2023/04/19 11:27:44;;;;;;;;;;;19.80;39.90;;;;;;5066822;28;20015;-62
2023/04/19 11:30:12;;;;;;;;;;;19.80;40.00;;;;;;5077547;28;19920;-62
2023/04/19 11:32:39;;;;;;;;;;;19.80;40.00;;;;;;5060175;28;20367;-62
2023/04/19 11:35:07;;;;;;;;;;;19.80;40.10;;;;;;5057626;28;19943;-62
2023/04/19 11:37:35;;;;;;;;;;;19.90;40.20;;;;;;5076561;28;19943;-62
2023/04/19 11:40:03;;;;;;;;;;;19.90;40.30;;;;;;5061425;28;19927;-62
2023/04/19 11:42:30;;;;;;;;;;;19.90;40.30;;;;;;5097224;28;19920;-62
2023/04/19 11:44:58;;;;;;;;;;;19.90;40.40;;;;;;5095626;28;19924;-62
2023/04/19 11:47:25;;;;;;;;;;;19.90;40.40;;;;;;5079444;28;19938;-62
2023/04/19 11:49:54;;;;;;;;;;;19.90;41.00;;;;;;5097606;28;19920;-62
2023/04/19 11:52:21;;;;;;;;;;;19.90;40.50;;;;;;5075654;28;19969;-62
2023/04/19 11:54:49;;;;;;;;;;;19.90;40.50;;;;;;5079187;28;19920;-62
2023/04/19 11:57:16;;;;;;;;;;;19.90;40.60;;;;;;5091862;28;20419;-62
2023/04/19 12:00:01;;;;;;;;;;;19.90;40.60;;;;;;5080714;28;20429;-63
2023/04/19 12:02:28;;;;;;;;;;;19.90;40.60;;;;;;5079227;28;19920;-62
2023/04/19 12:04:55;;;;;;;;;;;19.90;40.60;;;;;;5094021;28;20290;-62
2023/04/19 12:07:22;;;;;;;;;;;19.90;40.70;;;;;;5096246;28;19927;-62
2023/04/19 12:09:50;;;;;;;;;;;19.90;40.70;;;;;;5097553;28;19927;-62
2023/04/19 12:12:31;;;;;;;;;;;19.90;40.70;;;;;;5077219;28;19927;-62
2023/04/19 12:14:58;;;;;;;;;;;19.90;40.70;;;;;;5078872;28;19966;-63
2023/04/19 12:17:24;;;;;;;;;;;19.90;40.80;;;;;;5074109;28;20056;-62
2023/04/19 12:19:51;;;;;;;;;;;19.90;40.80;;;;;;5063488;28;19920;-62
2023/04/19 12:22:19;;;;;;;;;;;19.90;40.80;;;;;;5076222;28;19920;-62
2023/04/19 12:24:46;;;;;;;;;;;19.90;40.80;;;;;;5081021;28;20369;-62
2023/04/19 12:27:16;;;;;;;;;;;19.90;40.90;;;;;;5096280;28;19927;-62
2023/04/19 12:29:43;;;;;;;;;;;19.90;40.90;;;;;;5076898;28;19927;-62
2023/04/19 12:32:10;;;;;;;;;;;19.90;40.90;;;;;;5095549;28;19927;-62
2023/04/19 12:34:37;;;;;;;;;;;19.90;41.50;;;;;;5077015;28;19920;-62
2023/04/19 12:37:04;;;;;;;;;;;20.00;41.10;;;;;;5076687;28;19920;-62
2023/04/19 12:39:30;;;;;;;;;;;19.90;41.00;;;;;;5078541;28;19963;-62
2023/04/19 12:41:57;;;;;;;;;;;19.90;41.00;;;;;;5094861;28;19920;-62
2023/04/19 12:44:25;;;;;;;;;;;20.00;41.10;;;;;;5092554;28;19920;-62
2023/04/19 12:46:56;;;;;;;;;;;20.00;41.20;;;;;;5095123;28;19927;-62
2023/04/19 12:49:22;;;;;;;;;;;20.00;41.10;;;;;;5096766;28;19920;-63
2023/04/19 12:51:49;;;;;;;;;;;20.00;41.20;;;;;;5073763;28;20459;-62
2023/04/19 12:54:16;;;;;;;;;;;20.00;41.20;;;;;;5058724;28;19998;-62
2023/04/19 12:56:43;;;;;;;;;;;20.00;41.20;;;;;;5073613;28;19928;-61
2023/04/19 12:59:10;;;;;;;;;;;20.00;41.20;;;;;;5094479;28;19924;-63
2023/04/19 13:01:38;;;;;;;;;;;20.00;41.20;;;;;;5074665;28;20021;-62
2023/04/19 13:04:06;;;;;;;;;;;20.00;41.80;;;;;;5077979;28;19924;-62
2023/04/19 13:06:33;;;;;;;;;;;20.00;41.20;;;;;;5090826;28;19929;-62
2023/04/19 13:09:00;;;;;;;;;;;20.00;41.20;;;;;;5075307;28;19920;-62
2023/04/19 13:11:27;;;;;;;;;;;20.00;41.20;;;;;;5093820;28;19920;-62
2023/04/19 13:13:53;;;;;;;;;;;20.00;41.20;;;;;;5092815;28;20024;-62
2023/04/19 13:16:21;;;;;;;;;;;20.00;41.30;;;;;;5076080;28;19921;-61
2023/04/19 13:18:49;;;;;;;;;;;20.00;41.30;;;;;;5096117;28;19920;-62
2023/04/19 13:21:16;;;;;;;;;;;20.00;41.30;;;;;;5093575;28;19924;-62
2023/04/19 13:23:43;;;;;;;;;;;20.00;41.30;;;;;;5073403;28;20385;-61
2023/04/19 13:26:10;;;;;;;;;;;20.00;41.30;;;;;;5071675;28;19927;-62
2023/04/19 13:28:37;;;;;;;;;;;20.00;41.30;;;;;;5069967;28;19955;-62
2023/04/19 13:31:04;;;;;;;;;;;20.00;41.30;;;;;;5072147;28;19942;-62
2023/04/19 13:33:30;;;;;;;;;;;20.00;41.30;;;;;;5067930;28;19924;-61
2023/04/19 13:35:58;;;;;;;;;;;20.00;41.40;;;;;;5091427;28;19965;-61
2023/04/19 13:38:25;;;;;;;;;;;20.00;41.40;;;;;;5091029;28;19931;-61
2023/04/19 13:40:52;;;;;;;;;;;20.00;41.30;;;;;;5090809;28;19920;-63
2023/04/19 13:43:18;;;;;;;;;;;20.00;41.40;;;;;;5091152;28;19920;-61
2023/04/19 13:45:45;;;;;;;;;;;20.00;41.40;;;;;;5092005;28;19920;-61
2023/04/19 13:48:12;;;;;;;;;;;20.00;41.40;;;;;;5063619;28;19931;-62
2023/04/19 13:50:39;;;;;;;;;;;20.00;41.40;;;;;;5055282;28;19921;-62
2023/04/19 13:53:07;;;;;;;;;;;20.00;41.40;;;;;;5088161;28;19924;-62
2023/04/19 13:55:33;;;;;;;;;;;20.00;41.40;;;;;;5092658;28;19949;-63
2023/04/19 13:58:00;;;;;;;;;;;20.00;41.40;;;;;;5091891;28;20277;-62
2023/04/19 14:00:27;;;;;;;;;;;20.00;41.40;;;;;;5077153;28;20015;-63
2023/04/19 14:02:54;;;;;;;;;;;20.00;41.40;;;;;;5077276;28;19920;-62
2023/04/19 14:05:21;;;;;;;;;;;20.00;41.40;;;;;;5074948;28;20308;-63
2023/04/19 14:07:47;;;;;;;;;;;20.00;41.40;;;;;;5075322;28;19927;-63
2023/04/19 14:10:16;;;;;;;;;;;20.00;41.50;;;;;;5093716;28;19920;-63
2023/04/19 14:12:43;;;;;;;;;;;20.00;41.40;;;;;;5077127;28;19924;-63
2023/04/19 14:15:11;;;;;;;;;;;20.00;41.40;;;;;;5076609;28;19924;-63
2023/04/19 14:17:37;;;;;;;;;;;20.00;41.50;;;;;;5074718;28;19973;-63